sensor_id;sensor_type;location;lat;lon;timestamp;pressure;altitude;pressure_sealevel;temperature;humidity
46291;BME280;32023;44.444;26.006;2022-08-19T00:01:25;99943.09;;;24.60;60.90
46291;BME280;32023;44.444;26.006;2022-08-19T00:04:05;99945.81;;;24.57;60.98
46291;BME280;32023;44.444;26.006;2022-08-19T00:06:39;99953.34;;;24.53;61.01
46291;BME280;32023;44.444;26.006;2022-08-19T00:09:09;99952.81;;;24.47;61.46
46291;BME280;32023;44.444;26.006;2022-08-19T00:11:57;99954.25;;;24.41;61.45
46291;BME280;32023;44.444;26.006;2022-08-19T00:15:14;99959.25;;;24.32;61.33
46291;BME280;32023;44.444;26.006;2022-08-19T00:18:30;99971.03;;;24.22;61.43
46291;BME280;32023;44.444;26.006;2022-08-19T00:21:37;99967.56;;;24.13;61.52
46291;BME280;32023;44.444;26.006;2022-08-19T00:25:05;99971.34;;;24.05;61.52
46291;BME280;32023;44.444;26.006;2022-08-19T00:31:49;99966.00;;;23.87;62.07
46291;BME280;32023;44.444;26.006;2022-08-19T00:34:58;99970.72;;;23.83;62.45
46291;BME280;32023;44.444;26.006;2022-08-19T00:38:02;99971.44;;;23.80;62.91
46291;BME280;32023;44.444;26.006;2022-08-19T00:44:21;99969.13;;;23.70;63.55
46291;BME280;32023;44.444;26.006;2022-08-19T00:46:50;99969.84;;;23.67;64.08
46291;BME280;32023;44.444;26.006;2022-08-19T00:49:40;99969.38;;;23.65;64.21
46291;BME280;32023;44.444;26.006;2022-08-19T00:52:11;99978.09;;;23.60;64.63
46291;BME280;32023;44.444;26.006;2022-08-19T00:54:43;99972.81;;;23.59;64.57
46291;BME280;32023;44.444;26.006;2022-08-19T00:57:14;99973.16;;;23.57;64.77
46291;BME280;32023;44.444;26.006;2022-08-19T00:59:55;99976.94;;;23.49;64.74
46291;BME280;32023;44.444;26.006;2022-08-19T01:02:23;99973.22;;;23.45;64.78
46291;BME280;32023;44.444;26.006;2022-08-19T01:04:59;99976.38;;;23.43;64.87
46291;BME280;32023;44.444;26.006;2022-08-19T01:07:29;99977.88;;;23.41;65.06
46291;BME280;32023;44.444;26.006;2022-08-19T01:10:22;99979.75;;;23.37;65.10
46291;BME280;32023;44.444;26.006;2022-08-19T01:12:50;99970.72;;;23.31;65.22
46291;BME280;32023;44.444;26.006;2022-08-19T01:15:23;99970.72;;;23.31;65.18
46291;BME280;32023;44.444;26.006;2022-08-19T01:17:51;99975.53;;;23.31;65.47
46291;BME280;32023;44.444;26.006;2022-08-19T01:20:21;99967.47;;;23.29;66.02
46291;BME280;32023;44.444;26.006;2022-08-19T01:22:55;99971.44;;;23.28;66.23
46291;BME280;32023;44.444;26.006;2022-08-19T01:25:49;99963.72;;;23.25;66.43
46291;BME280;32023;44.444;26.006;2022-08-19T01:28:23;99970.19;;;23.26;66.69
46291;BME280;32023;44.444;26.006;2022-08-19T01:31:01;99977.66;;;23.22;66.82
46291;BME280;32023;44.444;26.006;2022-08-19T01:33:28;99976.38;;;23.19;67.10
46291;BME280;32023;44.444;26.006;2022-08-19T01:36:39;99985.41;;;23.13;67.17
46291;BME280;32023;44.444;26.006;2022-08-19T01:39:12;99981.66;;;23.09;67.50
46291;BME280;32023;44.444;26.006;2022-08-19T01:41:39;99983.53;;;23.04;67.65
46291;BME280;32023;44.444;26.006;2022-08-19T01:44:15;99988.22;;;23.00;67.82
46291;BME280;32023;44.444;26.006;2022-08-19T01:46:44;99991.28;;;22.95;67.96
46291;BME280;32023;44.444;26.006;2022-08-19T01:49:13;99998.28;;;22.89;68.22
46291;BME280;32023;44.444;26.006;2022-08-19T01:51:40;99995.72;;;22.84;68.25
46291;BME280;32023;44.444;26.006;2022-08-19T01:54:11;99997.34;;;22.85;68.45
46291;BME280;32023;44.444;26.006;2022-08-19T01:56:37;100000.50;;;22.84;68.68
46291;BME280;32023;44.444;26.006;2022-08-19T01:59:23;99998.75;;;22.79;68.67
46291;BME280;32023;44.444;26.006;2022-08-19T02:01:50;99995.50;;;22.77;68.91
46291;BME280;32023;44.444;26.006;2022-08-19T02:04:16;99995.81;;;22.76;69.00
46291;BME280;32023;44.444;26.006;2022-08-19T02:06:43;99995.50;;;22.77;69.08
46291;BME280;32023;44.444;26.006;2022-08-19T02:09:15;99996.16;;;22.74;69.08
46291;BME280;32023;44.444;26.006;2022-08-19T02:11:43;100008.59;;;22.73;69.16
46291;BME280;32023;44.444;26.006;2022-08-19T02:14:12;100000.16;;;22.73;69.25
46291;BME280;32023;44.444;26.006;2022-08-19T02:16:39;100001.66;;;22.71;69.30
46291;BME280;32023;44.444;26.006;2022-08-19T02:19:06;100000.84;;;22.70;69.42
46291;BME280;32023;44.444;26.006;2022-08-19T02:21:35;100013.59;;;22.68;69.57
46291;BME280;32023;44.444;26.006;2022-08-19T02:24:02;100005.03;;;22.64;69.54
46291;BME280;32023;44.444;26.006;2022-08-19T02:26:29;99998.94;;;22.62;69.72
46291;BME280;32023;44.444;26.006;2022-08-19T02:28:56;100002.44;;;22.59;69.91
46291;BME280;32023;44.444;26.006;2022-08-19T02:31:25;100001.97;;;22.57;70.12
46291;BME280;32023;44.444;26.006;2022-08-19T02:33:57;100004.28;;;22.55;70.24
46291;BME280;32023;44.444;26.006;2022-08-19T02:36:24;100002.19;;;22.52;70.60
46291;BME280;32023;44.444;26.006;2022-08-19T02:39:03;99997.28;;;22.49;70.83
46291;BME280;32023;44.444;26.006;2022-08-19T02:41:32;100004.88;;;22.48;71.09
46291;BME280;32023;44.444;26.006;2022-08-19T02:44:01;100003.59;;;22.46;71.28
46291;BME280;32023;44.444;26.006;2022-08-19T02:46:32;100007.91;;;22.43;71.56
46291;BME280;32023;44.444;26.006;2022-08-19T02:49:04;100002.16;;;22.40;71.58
46291;BME280;32023;44.444;26.006;2022-08-19T02:51:37;100016.19;;;22.40;71.66
46291;BME280;32023;44.444;26.006;2022-08-19T02:54:05;99928.91;;;21.76;71.73
46291;BME280;32023;44.444;26.006;2022-08-19T02:56:35;100018.53;;;22.38;71.64
46291;BME280;32023;44.444;26.006;2022-08-19T02:59:02;100013.13;;;22.33;71.91
46291;BME280;32023;44.444;26.006;2022-08-19T03:01:33;100011.53;;;22.32;72.21
46291;BME280;32023;44.444;26.006;2022-08-19T03:04:03;100016.44;;;22.35;72.35
46291;BME280;32023;44.444;26.006;2022-08-19T03:06:30;100007.53;;;22.33;72.56
46291;BME280;32023;44.444;26.006;2022-08-19T03:09:00;100020.72;;;22.32;72.63
46291;BME280;32023;44.444;26.006;2022-08-19T03:11:32;100014.66;;;22.30;72.64
46291;BME280;32023;44.444;26.006;2022-08-19T03:13:59;100018.50;;;22.26;72.42
46291;BME280;32023;44.444;26.006;2022-08-19T03:16:31;100025.25;;;22.25;72.43
46291;BME280;32023;44.444;26.006;2022-08-19T03:18:59;100021.50;;;22.21;72.49
46291;BME280;32023;44.444;26.006;2022-08-19T03:21:27;100021.88;;;22.19;72.50
46291;BME280;32023;44.444;26.006;2022-08-19T03:23:55;100017.09;;;22.20;72.57
46291;BME280;32023;44.444;26.006;2022-08-19T03:26:24;100019.88;;;22.20;72.42
46291;BME280;32023;44.444;26.006;2022-08-19T03:28:52;100019.88;;;22.20;72.56
46291;BME280;32023;44.444;26.006;2022-08-19T03:31:23;100021.16;;;22.22;72.37
46291;BME280;32023;44.444;26.006;2022-08-19T03:33:51;100023.16;;;22.22;72.45
46291;BME280;32023;44.444;26.006;2022-08-19T03:36:38;100029.13;;;22.20;72.44
46291;BME280;32023;44.444;26.006;2022-08-19T03:39:07;100030.41;;;22.23;72.52
46291;BME280;32023;44.444;26.006;2022-08-19T03:44:06;100045.59;;;22.22;72.57
46291;BME280;32023;44.444;26.006;2022-08-19T03:46:36;100043.94;;;22.21;72.73
46291;BME280;32023;44.444;26.006;2022-08-19T03:49:05;100040.69;;;22.19;72.75
46291;BME280;32023;44.444;26.006;2022-08-19T03:51:38;100041.50;;;22.19;72.66
46291;BME280;32023;44.444;26.006;2022-08-19T03:54:10;100043.94;;;22.21;72.67
46291;BME280;32023;44.444;26.006;2022-08-19T03:56:39;100036.03;;;22.23;72.62
46291;BME280;32023;44.444;26.006;2022-08-19T03:59:15;100038.63;;;22.28;72.37
46291;BME280;32023;44.444;26.006;2022-08-19T04:01:42;100039.91;;;22.30;71.98
46291;BME280;32023;44.444;26.006;2022-08-19T04:04:09;100048.44;;;22.34;71.78
46291;BME280;32023;44.444;26.006;2022-08-19T04:06:39;100046.59;;;22.38;71.66
46291;BME280;32023;44.444;26.006;2022-08-19T04:09:10;100050.34;;;22.42;71.71
46291;BME280;32023;44.444;26.006;2022-08-19T04:11:41;100052.94;;;22.47;71.63
46291;BME280;32023;44.444;26.006;2022-08-19T04:14:16;100044.28;;;22.52;71.50
46291;BME280;32023;44.444;26.006;2022-08-19T04:16:53;100048.03;;;22.56;71.50
46291;BME280;32023;44.444;26.006;2022-08-19T04:19:20;100052.28;;;22.62;71.34
46291;BME280;32023;44.444;26.006;2022-08-19T04:21:49;100039.16;;;22.66;70.99
46291;BME280;32023;44.444;26.006;2022-08-19T04:24:20;100051.78;;;22.60;70.93
46291;BME280;32023;44.444;26.006;2022-08-19T04:26:47;100054.19;;;22.70;70.62
46291;BME280;32023;44.444;26.006;2022-08-19T04:29:17;100054.06;;;22.79;70.36
46291;BME280;32023;44.444;26.006;2022-08-19T04:31:45;100056.66;;;22.84;70.13
46291;BME280;32023;44.444;26.006;2022-08-19T04:34:13;100055.63;;;22.88;69.58
46291;BME280;32023;44.444;26.006;2022-08-19T04:36:42;100057.47;;;22.96;69.22
46291;BME280;32023;44.444;26.006;2022-08-19T04:39:23;100053.28;;;23.02;68.71
46291;BME280;32023;44.444;26.006;2022-08-19T04:42:10;100051.53;;;23.10;68.31
46291;BME280;32023;44.444;26.006;2022-08-19T04:44:55;100055.41;;;23.18;68.28
46291;BME280;32023;44.444;26.006;2022-08-19T04:47:23;100060.09;;;23.26;67.84
46291;BME280;32023;44.444;26.006;2022-08-19T04:49:51;100051.41;;;23.31;67.40
46291;BME280;32023;44.444;26.006;2022-08-19T04:52:21;100051.16;;;23.36;67.04
46291;BME280;32023;44.444;26.006;2022-08-19T04:54:47;100049.09;;;23.45;66.88
46291;BME280;32023;44.444;26.006;2022-08-19T04:57:21;100060.69;;;23.56;66.72
46291;BME280;32023;44.444;26.006;2022-08-19T04:59:55;100057.75;;;23.64;66.04
46291;BME280;32023;44.444;26.006;2022-08-19T05:02:23;100055.47;;;23.70;65.78
46291;BME280;32023;44.444;26.006;2022-08-19T05:04:55;100066.59;;;23.78;65.39
46291;BME280;32023;44.444;26.006;2022-08-19T05:07:22;100064.81;;;23.86;65.13
46291;BME280;32023;44.444;26.006;2022-08-19T05:09:49;100073.91;;;23.95;64.99
46291;BME280;32023;44.444;26.006;2022-08-19T05:12:17;100074.94;;;24.03;64.87
46291;BME280;32023;44.444;26.006;2022-08-19T05:14:44;100074.38;;;24.09;64.65
46291;BME280;32023;44.444;26.006;2022-08-19T05:17:13;100077.88;;;24.18;64.36
46291;BME280;32023;44.444;26.006;2022-08-19T05:20:02;100066.91;;;24.29;63.57
46291;BME280;32023;44.444;26.006;2022-08-19T05:22:59;100068.03;;;24.40;63.13
46291;BME280;32023;44.444;26.006;2022-08-19T05:25:26;100064.34;;;24.52;62.92
46291;BME280;32023;44.444;26.006;2022-08-19T05:27:52;100057.00;;;24.63;62.32
46291;BME280;32023;44.444;26.006;2022-08-19T05:30:21;100060.13;;;24.73;61.87
46291;BME280;32023;44.444;26.006;2022-08-19T05:33:05;100069.31;;;24.86;61.73
46291;BME280;32023;44.444;26.006;2022-08-19T05:35:32;100053.50;;;24.97;61.52
46291;BME280;32023;44.444;26.006;2022-08-19T05:38:02;100053.41;;;25.09;60.88
46291;BME280;32023;44.444;26.006;2022-08-19T05:40:28;100057.31;;;25.20;60.71
46291;BME280;32023;44.444;26.006;2022-08-19T05:43:05;100053.56;;;25.32;60.50
46291;BME280;32023;44.444;26.006;2022-08-19T05:45:33;100061.94;;;25.44;60.18
46291;BME280;32023;44.444;26.006;2022-08-19T05:48:09;100060.63;;;25.57;59.84
46291;BME280;32023;44.444;26.006;2022-08-19T05:53:37;100058.75;;;25.80;58.51
46291;BME280;32023;44.444;26.006;2022-08-19T05:56:14;100060.28;;;25.94;57.62
46291;BME280;32023;44.444;26.006;2022-08-19T05:58:43;100058.50;;;26.05;57.21
46291;BME280;32023;44.444;26.006;2022-08-19T06:01:19;100054.31;;;26.18;57.01
46291;BME280;32023;44.444;26.006;2022-08-19T06:03:45;100058.22;;;26.29;56.53
46291;BME280;32023;44.444;26.006;2022-08-19T06:06:15;100065.78;;;26.44;56.20
46291;BME280;32023;44.444;26.006;2022-08-19T06:08:45;100062.78;;;26.56;55.44
46291;BME280;32023;44.444;26.006;2022-08-19T06:14:05;100065.84;;;26.90;54.57
46291;BME280;32023;44.444;26.006;2022-08-19T06:16:55;100063.31;;;27.04;53.35
46291;BME280;32023;44.444;26.006;2022-08-19T06:19:29;100059.94;;;27.21;52.79
46291;BME280;32023;44.444;26.006;2022-08-19T06:21:57;100065.47;;;27.37;52.36
46291;BME280;32023;44.444;26.006;2022-08-19T06:24:28;100063.69;;;27.51;51.67
46291;BME280;32023;44.444;26.006;2022-08-19T06:26:57;100063.91;;;27.65;50.91
46291;BME280;32023;44.444;26.006;2022-08-19T06:29:34;100061.28;;;27.80;50.47
46291;BME280;32023;44.444;26.006;2022-08-19T06:32:24;100060.28;;;27.95;49.87
46291;BME280;32023;44.444;26.006;2022-08-19T06:34:57;100058.19;;;28.18;49.68
46291;BME280;32023;44.444;26.006;2022-08-19T06:37:26;100051.09;;;28.35;49.33
46291;BME280;32023;44.444;26.006;2022-08-19T06:46:37;100052.88;;;28.83;47.01
46291;BME280;32023;44.444;26.006;2022-08-19T07:04:47;100055.78;;;29.96;43.18
46291;BME280;32023;44.444;26.006;2022-08-19T07:11:05;100053.94;;;30.35;42.00
46291;BME280;32023;44.444;26.006;2022-08-19T07:16:56;100053.66;;;30.83;41.04
46291;BME280;32023;44.444;26.006;2022-08-19T07:19:51;100052.13;;;31.03;39.65
46291;BME280;32023;44.444;26.006;2022-08-19T07:22:52;100047.22;;;31.25;39.31
46291;BME280;32023;44.444;26.006;2022-08-19T07:25:19;100053.72;;;31.39;38.94
46291;BME280;32023;44.444;26.006;2022-08-19T07:27:50;100036.66;;;31.57;38.55
46291;BME280;32023;44.444;26.006;2022-08-19T07:30:57;100043.13;;;31.75;37.82
46291;BME280;32023;44.444;26.006;2022-08-19T07:33:36;100033.31;;;31.90;37.20
46291;BME280;32023;44.444;26.006;2022-08-19T07:36:22;100049.13;;;32.06;37.36
46291;BME280;32023;44.444;26.006;2022-08-19T07:39:34;100047.47;;;32.19;36.47
46291;BME280;32023;44.444;26.006;2022-08-19T07:42:17;100054.34;;;32.35;36.71
46291;BME280;32023;44.444;26.006;2022-08-19T07:45:09;100045.28;;;32.55;35.87
46291;BME280;32023;44.444;26.006;2022-08-19T07:48:19;100047.69;;;32.67;36.13
46291;BME280;32023;44.444;26.006;2022-08-19T07:51:33;100043.47;;;32.85;35.87
46291;BME280;32023;44.444;26.006;2022-08-19T07:54:15;100047.78;;;33.08;36.30
46291;BME280;32023;44.444;26.006;2022-08-19T08:00:32;100034.47;;;33.42;34.88
46291;BME280;32023;44.444;26.006;2022-08-19T08:03:07;100042.13;;;33.52;34.66
46291;BME280;32023;44.444;26.006;2022-08-19T08:09:09;100031.97;;;33.85;33.58
46291;BME280;32023;44.444;26.006;2022-08-19T08:12:21;100027.59;;;33.77;33.37
46291;BME280;32023;44.444;26.006;2022-08-19T08:15:15;100026.69;;;33.87;33.90
46291;BME280;32023;44.444;26.006;2022-08-19T08:18:05;100039.00;;;34.18;33.02
46291;BME280;32023;44.444;26.006;2022-08-19T08:20:39;100029.34;;;34.35;32.47
46291;BME280;32023;44.444;26.006;2022-08-19T08:30:25;100017.78;;;34.99;30.51
46291;BME280;32023;44.444;26.006;2022-08-19T08:36:17;100019.44;;;34.73;31.10
46291;BME280;32023;44.444;26.006;2022-08-19T08:53:18;100002.91;;;35.78;29.88
46291;BME280;32023;44.444;26.006;2022-08-19T08:55:51;99994.25;;;36.01;28.72
46291;BME280;32023;44.444;26.006;2022-08-19T09:01:42;99994.16;;;36.44;28.54
46291;BME280;32023;44.444;26.006;2022-08-19T09:04:58;99994.41;;;36.69;27.46
46291;BME280;32023;44.444;26.006;2022-08-19T09:07:53;99996.13;;;36.99;26.48
46291;BME280;32023;44.444;26.006;2022-08-19T09:15:09;99991.56;;;37.79;25.58
46291;BME280;32023;44.444;26.006;2022-08-19T09:18:26;99989.88;;;37.94;25.50
46291;BME280;32023;44.444;26.006;2022-08-19T09:27:35;99998.34;;;38.42;25.21
46291;BME280;32023;44.444;26.006;2022-08-19T10:08:12;99979.78;;;40.93;21.62
46291;BME280;32023;44.444;26.006;2022-08-19T10:15:38;99946.97;;;41.27;20.50
46291;BME280;32023;44.444;26.006;2022-08-19T10:19:32;99968.00;;;41.37;20.67
46291;BME280;32023;44.444;26.006;2022-08-19T10:25:51;99968.41;;;45.13;17.06
46291;BME280;32023;44.444;26.006;2022-08-19T10:47:15;99948.47;;;40.92;21.15
46291;BME280;32023;44.444;26.006;2022-08-19T10:56:23;99935.44;;;40.78;21.73
46291;BME280;32023;44.444;26.006;2022-08-19T11:55:52;99892.19;;;43.81;17.16
46291;BME280;32023;44.444;26.006;2022-08-19T12:07:49;99876.94;;;41.59;19.04
46291;BME280;32023;44.444;26.006;2022-08-19T12:11:04;99714.78;;;39.59;19.78
46291;BME280;32023;44.444;26.006;2022-08-19T12:14:35;99867.19;;;39.91;21.29
46291;BME280;32023;44.444;26.006;2022-08-19T12:17:04;99866.72;;;39.50;20.77
46291;BME280;32023;44.444;26.006;2022-08-19T12:19:42;99870.97;;;39.23;21.87
46291;BME280;32023;44.444;26.006;2022-08-19T12:22:09;99867.38;;;38.97;22.86
46291;BME280;32023;44.444;26.006;2022-08-19T12:24:52;99868.44;;;38.78;23.21
46291;BME280;32023;44.444;26.006;2022-08-19T12:31:15;99860.63;;;38.66;22.24
46291;BME280;32023;44.444;26.006;2022-08-19T14:02:20;99823.81;;;36.38;24.88
46291;BME280;32023;44.444;26.006;2022-08-19T14:04:47;99813.22;;;36.35;24.88
46291;BME280;32023;44.444;26.006;2022-08-19T14:07:13;99816.47;;;36.37;24.80
46291;BME280;32023;44.444;26.006;2022-08-19T14:09:51;99817.34;;;36.34;25.00
46291;BME280;32023;44.444;26.006;2022-08-19T14:12:27;99805.63;;;37.05;24.00
46291;BME280;32023;44.444;26.006;2022-08-19T14:15:07;99812.75;;;39.50;20.78
46291;BME280;32023;44.444;26.006;2022-08-19T14:17:43;99814.59;;;40.76;19.51
46291;BME280;32023;44.444;26.006;2022-08-19T14:20:36;99807.56;;;41.41;18.74
46291;BME280;32023;44.444;26.006;2022-08-19T14:27:15;99813.13;;;42.80;17.73
46291;BME280;32023;44.444;26.006;2022-08-19T14:33:20;99819.00;;;44.70;15.40
46291;BME280;32023;44.444;26.006;2022-08-19T14:55:29;99814.66;;;41.04;18.57
46291;BME280;32023;44.444;26.006;2022-08-19T15:48:54;99788.78;;;34.56;24.31
46291;BME280;32023;44.444;26.006;2022-08-19T15:51:52;99791.09;;;34.42;24.65
46291;BME280;32023;44.444;26.006;2022-08-19T15:54:56;99792.34;;;34.17;25.38
46291;BME280;32023;44.444;26.006;2022-08-19T16:01:05;99785.44;;;34.11;25.63
46291;BME280;32023;44.444;26.006;2022-08-19T16:04:16;99787.72;;;33.97;26.34
46291;BME280;32023;44.444;26.006;2022-08-19T16:07:10;99783.69;;;33.94;26.93
46291;BME280;32023;44.444;26.006;2022-08-19T16:13:21;99785.56;;;33.77;26.87
46291;BME280;32023;44.444;26.006;2022-08-19T16:15:54;99794.19;;;33.74;27.18
46291;BME280;32023;44.444;26.006;2022-08-19T16:18:24;99791.38;;;33.70;27.74
46291;BME280;32023;44.444;26.006;2022-08-19T16:20:52;99793.50;;;33.66;28.22
46291;BME280;32023;44.444;26.006;2022-08-19T16:23:25;99790.72;;;33.59;27.97
46291;BME280;32023;44.444;26.006;2022-08-19T16:25:52;99781.91;;;33.47;28.59
46291;BME280;32023;44.444;26.006;2022-08-19T16:28:19;99789.00;;;33.35;28.28
46291;BME280;32023;44.444;26.006;2022-08-19T16:30:49;99784.19;;;33.28;27.99
46291;BME280;32023;44.444;26.006;2022-08-19T16:33:42;99779.81;;;33.20;28.09
46291;BME280;32023;44.444;26.006;2022-08-19T16:36:12;99779.03;;;33.16;28.85
46291;BME280;32023;44.444;26.006;2022-08-19T16:38:38;99785.59;;;33.13;28.92
46291;BME280;32023;44.444;26.006;2022-08-19T16:41:05;99782.03;;;33.02;28.45
46291;BME280;32023;44.444;26.006;2022-08-19T16:43:37;99783.34;;;32.94;29.14
46291;BME280;32023;44.444;26.006;2022-08-19T16:46:04;99786.78;;;32.82;29.67
46291;BME280;32023;44.444;26.006;2022-08-19T16:55:49;99787.97;;;32.40;31.78
46291;BME280;32023;44.444;26.006;2022-08-19T16:58:54;99798.69;;;32.25;32.14
46291;BME280;32023;44.444;26.006;2022-08-19T17:07:41;99799.72;;;31.94;33.32
46291;BME280;32023;44.444;26.006;2022-08-19T17:10:52;99802.66;;;31.83;33.25
46291;BME280;32023;44.444;26.006;2022-08-19T17:17:13;99804.00;;;31.61;33.06
46291;BME280;32023;44.444;26.006;2022-08-19T17:23:07;99814.19;;;31.51;33.40
46291;BME280;32023;44.444;26.006;2022-08-19T17:25:54;99814.84;;;32.83;31.14
46291;BME280;32023;44.444;26.006;2022-08-19T17:28:27;99824.13;;;35.52;27.09
46291;BME280;32023;44.444;26.006;2022-08-19T17:30:59;99817.22;;;37.31;24.84
46291;BME280;32023;44.444;26.006;2022-08-19T17:33:32;99826.94;;;38.41;23.49
46291;BME280;32023;44.444;26.006;2022-08-19T17:36:00;99831.34;;;39.15;22.52
46291;BME280;32023;44.444;26.006;2022-08-19T17:38:35;99829.16;;;39.62;21.88
46291;BME280;32023;44.444;26.006;2022-08-19T17:41:22;99833.91;;;40.00;21.42
46291;BME280;32023;44.444;26.006;2022-08-19T17:43:49;99827.16;;;40.33;20.82
46291;BME280;32023;44.444;26.006;2022-08-19T17:46:15;99835.88;;;40.52;20.57
46291;BME280;32023;44.444;26.006;2022-08-19T17:49:05;99844.66;;;39.34;21.94
46291;BME280;32023;44.444;26.006;2022-08-19T17:54:13;99857.78;;;36.23;25.60
46291;BME280;32023;44.444;26.006;2022-08-19T17:56:48;99863.16;;;35.03;27.49
46291;BME280;32023;44.444;26.006;2022-08-19T17:59:17;99856.28;;;34.27;28.67
46291;BME280;32023;44.444;26.006;2022-08-19T18:01:57;99865.06;;;33.52;29.76
46291;BME280;32023;44.444;26.006;2022-08-19T18:07:08;99878.22;;;32.57;31.49
46291;BME280;32023;44.444;26.006;2022-08-19T18:10:04;99882.97;;;32.23;32.01
46291;BME280;32023;44.444;26.006;2022-08-19T18:12:34;99897.72;;;32.04;32.72
46291;BME280;32023;44.444;26.006;2022-08-19T18:15:11;99892.56;;;31.77;33.02
46291;BME280;32023;44.444;26.006;2022-08-19T18:17:41;99895.53;;;31.56;33.55
46291;BME280;32023;44.444;26.006;2022-08-19T18:20:18;99898.41;;;31.42;33.92
46291;BME280;32023;44.444;26.006;2022-08-19T18:22:48;99900.06;;;31.25;34.21
46291;BME280;32023;44.444;26.006;2022-08-19T18:30:42;99899.28;;;30.86;34.96
46291;BME280;32023;44.444;26.006;2022-08-19T18:33:31;99905.41;;;30.74;35.15
46291;BME280;32023;44.444;26.006;2022-08-19T18:36:16;99907.84;;;30.65;35.20
46291;BME280;32023;44.444;26.006;2022-08-19T18:39:19;99912.31;;;30.55;35.60
46291;BME280;32023;44.444;26.006;2022-08-19T18:42:13;99913.94;;;30.49;35.61
46291;BME280;32023;44.444;26.006;2022-08-19T18:48:18;99918.75;;;30.31;36.07
46291;BME280;32023;44.444;26.006;2022-08-19T18:51:15;99917.13;;;30.26;35.99
46291;BME280;32023;44.444;26.006;2022-08-19T18:54:03;99924.44;;;30.20;36.49
46291;BME280;32023;44.444;26.006;2022-08-19T19:00:12;99926.41;;;30.05;36.54
46291;BME280;32023;44.444;26.006;2022-08-19T19:02:44;99931.66;;;30.00;36.65
46291;BME280;32023;44.444;26.006;2022-08-19T19:08:33;99919.06;;;29.87;37.13
46291;BME280;32023;44.444;26.006;2022-08-19T19:11:28;99921.03;;;29.83;37.29
46291;BME280;32023;44.444;26.006;2022-08-19T19:14:09;99926.69;;;29.76;37.30
46291;BME280;32023;44.444;26.006;2022-08-19T19:22:47;99923.38;;;29.59;37.53
46291;BME280;32023;44.444;26.006;2022-08-19T19:32:00;99928.16;;;29.38;38.24
46291;BME280;32023;44.444;26.006;2022-08-19T19:38:09;99934.16;;;29.29;38.74
46291;BME280;32023;44.444;26.006;2022-08-19T19:41:21;99931.66;;;29.24;38.83
46291;BME280;32023;44.444;26.006;2022-08-19T19:47:54;99936.88;;;29.15;39.06
46291;BME280;32023;44.444;26.006;2022-08-19T19:51:05;99936.88;;;29.15;38.95
46291;BME280;32023;44.444;26.006;2022-08-19T19:56:58;99942.53;;;29.11;39.18
46291;BME280;32023;44.444;26.006;2022-08-19T19:59:59;99942.53;;;29.08;39.41
46291;BME280;32023;44.444;26.006;2022-08-19T20:05:48;99947.34;;;29.04;39.38
46291;BME280;32023;44.444;26.006;2022-08-19T20:08:45;99948.09;;;29.01;39.44
46291;BME280;32023;44.444;26.006;2022-08-19T20:11:50;99956.63;;;29.01;39.50
46291;BME280;32023;44.444;26.006;2022-08-19T20:14:27;99954.56;;;28.98;39.43
46291;BME280;32023;44.444;26.006;2022-08-19T20:16:55;99954.56;;;28.98;39.66
46291;BME280;32023;44.444;26.006;2022-08-19T20:19:34;99952.53;;;28.95;39.49
46291;BME280;32023;44.444;26.006;2022-08-19T20:22:08;99954.97;;;28.93;39.75
46291;BME280;32023;44.444;26.006;2022-08-19T20:24:48;99952.88;;;28.90;39.66
46291;BME280;32023;44.444;26.006;2022-08-19T20:27:32;99949.22;;;28.86;39.90
46291;BME280;32023;44.444;26.006;2022-08-19T20:30:20;99955.66;;;28.83;40.09
46291;BME280;32023;44.444;26.006;2022-08-19T20:33:12;99956.47;;;28.80;40.17
46291;BME280;32023;44.444;26.006;2022-08-19T20:35:45;99962.91;;;28.77;40.63
46291;BME280;32023;44.444;26.006;2022-08-19T20:38:11;99957.63;;;28.75;40.64
46291;BME280;32023;44.444;26.006;2022-08-19T20:40:49;99951.16;;;28.75;40.68
46291;BME280;32023;44.444;26.006;2022-08-19T20:43:22;99961.69;;;28.74;41.04
46291;BME280;32023;44.444;26.006;2022-08-19T20:45:49;99956.38;;;28.69;41.49
46291;BME280;32023;44.444;26.006;2022-08-19T20:48:31;99959.97;;;28.66;41.85
46291;BME280;32023;44.444;26.006;2022-08-19T20:51:01;99954.66;;;28.61;42.63
46291;BME280;32023;44.444;26.006;2022-08-19T20:53:27;99961.88;;;28.55;43.55
46291;BME280;32023;44.444;26.006;2022-08-19T20:55:56;99961.00;;;28.47;43.71
46291;BME280;32023;44.444;26.006;2022-08-19T20:58:34;99962.13;;;28.39;44.17
46291;BME280;32023;44.444;26.006;2022-08-19T21:01:04;99966.13;;;28.35;44.79
46291;BME280;32023;44.444;26.006;2022-08-19T21:03:44;99953.91;;;28.27;44.83
46291;BME280;32023;44.444;26.006;2022-08-19T21:06:13;99968.81;;;28.20;45.20
46291;BME280;32023;44.444;26.006;2022-08-19T21:08:40;99974.00;;;28.15;45.61
46291;BME280;32023;44.444;26.006;2022-08-19T21:11:12;99961.81;;;28.11;45.94
46291;BME280;32023;44.444;26.006;2022-08-19T21:13:39;99963.72;;;28.03;46.13
46291;BME280;32023;44.444;26.006;2022-08-19T21:16:06;99963.28;;;27.98;46.44
46291;BME280;32023;44.444;26.006;2022-08-19T21:18:32;99969.72;;;27.95;46.65
46291;BME280;32023;44.444;26.006;2022-08-19T21:21:22;99964.38;;;27.90;46.71
46291;BME280;32023;44.444;26.006;2022-08-19T21:23:52;99968.00;;;27.87;47.49
46291;BME280;32023;44.444;26.006;2022-08-19T21:26:18;99965.06;;;27.80;47.35
46291;BME280;32023;44.444;26.006;2022-08-19T21:28:57;99971.06;;;27.74;47.70
46291;BME280;32023;44.444;26.006;2022-08-19T21:31:27;99966.19;;;27.71;47.76
46291;BME280;32023;44.444;26.006;2022-08-19T21:33:58;99968.56;;;27.69;47.80